KBBW/BBW METAR and TAF weather

Enter ICAO airport designator
Station Type Date Time Source
KBBW METAR 2019/06/26 21:53 UTC NOAA

KBBW 262153Z AUTO 17014G24KT 10SM CLR 29/19 A2997 RMK AO2 PK WND 16027/2123 SLP126 T02940189


Station Type Date Time Source
KBBW Decoded METAR 2019/06/26 21:53 UTC NOAA

BROKEN BOW MUNICIPAL AIRPORT, NE, United States (KBBW) 41-26N 099-38W
Jun 26, 2019 - 05:53 PM EDT / 2019.06.26 2153 UTC
Wind: from the S (170 degrees) at 16 MPH (14 KT) gusting to 28 MPH (24 KT):0
Visibility: 10 mile(s):0
Sky conditions: clear
Temperature: 84.9 F (29.4 C)
Dew Point: 66.0 F (18.9 C)
Relative Humidity: 53%
Pressure (altimeter): 29.97 in. Hg (1014 hPa)
ob: KBBW 262153Z AUTO 17014G24KT 10SM CLR 29/19 A2997 RMK AO2 PK WND 16027/2123 SLP126 T02940189
cycle: 22

Station Type Date Time Source
KBBW TAF UTC NOAA

Error!

Example: see airport list